createdAt,value
2022-09-07T00:01:52.332Z,2.90
2022-09-07T00:04:18.940Z,2.67
2022-09-07T00:06:45.534Z,2.83
2022-09-07T00:09:12.133Z,2.90
2022-09-07T00:11:38.754Z,2.28
2022-09-07T00:14:06.517Z,2.90
2022-09-07T00:16:33.159Z,2.83
2022-09-07T00:19:00.992Z,2.97
2022-09-07T00:21:27.812Z,2.58
2022-09-07T00:23:54.785Z,2.60
2022-09-07T00:26:23.458Z,2.78
2022-09-07T00:28:50.403Z,2.80
2022-09-07T00:31:21.658Z,2.85
2022-09-07T00:33:49.200Z,2.78
2022-09-07T00:36:16.331Z,0.00
2022-09-07T00:38:43.128Z,0.00
2022-09-07T00:41:09.973Z,0.10
2022-09-07T00:43:39.523Z,0.10
2022-09-07T00:46:07.056Z,0.10
2022-09-07T00:48:39.072Z,0.10
2022-09-07T00:51:07.115Z,0.10
2022-09-07T00:53:37.494Z,2.42
2022-09-07T00:56:04.453Z,1.83
2022-09-07T00:58:31.631Z,2.70
2022-09-07T01:00:58.282Z,2.40
2022-09-07T01:03:27.541Z,2.50
2022-09-07T01:06:14.304Z,2.70
2022-09-07T01:08:42.164Z,2.85
2022-09-07T01:11:08.996Z,2.88
2022-09-07T01:13:36.276Z,2.70
2022-09-07T01:16:13.001Z,2.40
2022-09-07T01:18:58.104Z,2.92
2022-09-07T01:21:30.275Z,2.65
2022-09-07T01:24:15.520Z,2.75
2022-09-07T01:26:43.842Z,2.60
2022-09-07T01:29:19.159Z,2.75
2022-09-07T01:32:02.074Z,2.67
2022-09-07T01:34:28.676Z,3.10
2022-09-07T01:36:55.329Z,2.95
2022-09-07T01:39:24.897Z,2.90
2022-09-07T01:41:51.491Z,2.80
2022-09-07T01:44:23.555Z,2.75
2022-09-07T01:46:53.147Z,3.00
2022-09-07T01:49:23.914Z,3.35
2022-09-07T01:51:57.080Z,2.70
2022-09-07T01:54:56.097Z,2.58
2022-09-07T01:57:26.892Z,3.00
2022-09-07T01:59:57.616Z,3.20
2022-09-07T02:02:27.128Z,2.70
2022-09-07T02:05:00.620Z,3.08
2022-09-07T02:07:35.507Z,2.70
2022-09-07T02:10:06.679Z,2.78
2022-09-07T02:12:38.258Z,2.92
2022-09-07T02:15:10.939Z,2.80
2022-09-07T02:17:42.024Z,2.88
2022-09-07T02:20:28.953Z,2.97
2022-09-07T02:22:58.337Z,2.60
2022-09-07T02:25:26.819Z,2.72
2022-09-07T02:27:56.480Z,2.70
2022-09-07T02:30:23.123Z,2.88
2022-09-07T02:32:49.728Z,2.90
2022-09-07T02:35:16.424Z,3.00
2022-09-07T02:37:44.507Z,2.78
2022-09-07T02:40:11.474Z,2.55
2022-09-07T02:42:38.700Z,2.63
2022-09-07T02:45:06.592Z,3.08
2022-09-07T02:47:50.112Z,2.80
2022-09-07T02:50:29.058Z,2.78
2022-09-07T02:53:15.465Z,2.85
2022-09-07T02:55:45.015Z,2.67
2022-09-07T02:58:14.781Z,2.65
2022-09-07T03:01:00.335Z,2.50
2022-09-07T03:03:33.805Z,2.58
2022-09-07T03:06:02.464Z,2.75
2022-09-07T03:08:32.015Z,2.60
2022-09-07T03:10:59.149Z,2.95
2022-09-07T03:13:27.479Z,3.13
2022-09-07T03:15:56.313Z,2.75
2022-09-07T03:18:24.503Z,3.17
2022-09-07T03:20:51.406Z,2.95
2022-09-07T03:23:18.064Z,3.10
2022-09-07T03:25:44.673Z,3.00
2022-09-07T03:28:11.502Z,2.75
2022-09-07T03:30:41.731Z,3.13
2022-09-07T03:33:08.378Z,3.03
2022-09-07T03:35:35.689Z,2.70
2022-09-07T03:38:02.282Z,2.80
2022-09-07T03:40:29.050Z,3.03
2022-09-07T03:42:55.680Z,2.65
2022-09-07T03:45:22.376Z,2.70
2022-09-07T03:47:51.203Z,2.90
2022-09-07T03:50:18.141Z,3.13
2022-09-07T03:52:44.909Z,3.05
2022-09-07T03:55:11.573Z,2.53
2022-09-07T03:57:38.278Z,2.70
2022-09-07T04:00:05.489Z,2.55
2022-09-07T04:02:32.215Z,2.67
2022-09-07T04:04:59.021Z,2.97
2022-09-07T04:07:25.795Z,2.78
2022-09-07T04:09:52.575Z,2.92
2022-09-07T04:12:19.388Z,2.50
2022-09-07T04:14:46.503Z,3.05
2022-09-07T04:17:13.253Z,2.92
2022-09-07T04:19:39.970Z,3.35
2022-09-07T04:22:06.633Z,2.70
2022-09-07T04:24:33.286Z,2.92
2022-09-07T04:27:00.407Z,2.70
2022-09-07T04:29:27.067Z,3.33
2022-09-07T04:31:53.657Z,2.90
2022-09-07T04:34:20.823Z,2.80
2022-09-07T04:36:47.436Z,2.83
2022-09-07T04:39:13.956Z,2.80
2022-09-07T04:41:40.619Z,2.95
2022-09-07T04:44:07.364Z,3.20
2022-09-07T04:46:35.156Z,2.60
2022-09-07T04:49:03.106Z,3.05
2022-09-07T04:51:31.263Z,3.03
2022-09-07T04:53:58.703Z,2.85
2022-09-07T04:56:25.882Z,3.30
2022-09-07T04:58:52.593Z,1.98
2022-09-07T05:01:20.568Z,3.17
2022-09-07T05:03:47.653Z,3.53
2022-09-07T05:06:14.399Z,2.83
2022-09-07T05:08:45.326Z,3.25
2022-09-07T05:11:13.055Z,2.88
2022-09-07T05:13:39.838Z,2.58
2022-09-07T05:16:10.466Z,3.00
2022-09-07T05:18:37.199Z,3.35
2022-09-07T05:21:14.114Z,2.90
2022-09-07T05:23:41.235Z,2.97
2022-09-07T05:26:08.764Z,3.63
2022-09-07T05:28:35.890Z,3.28
2022-09-07T05:31:22.226Z,3.15
2022-09-07T05:36:37.616Z,3.83
2022-09-07T05:39:05.606Z,3.25
2022-09-07T05:41:32.218Z,3.22
2022-09-07T05:46:45.495Z,3.00
2022-09-07T05:49:12.089Z,3.10
2022-09-07T05:51:38.939Z,3.20
2022-09-07T05:54:05.897Z,3.25
2022-09-07T05:56:36.219Z,3.55
2022-09-07T05:59:03.563Z,3.15
2022-09-07T06:01:30.186Z,3.85
2022-09-07T06:03:56.849Z,3.22
2022-09-07T06:06:23.568Z,3.58
2022-09-07T06:08:51.438Z,4.30
2022-09-07T06:11:21.942Z,3.20
2022-09-07T06:13:48.753Z,3.53
2022-09-07T06:16:15.758Z,5.60
2022-09-07T06:18:43.330Z,3.92
2022-09-07T06:21:14.095Z,3.47
2022-09-07T06:23:41.305Z,3.85
2022-09-07T06:26:08.369Z,3.70
2022-09-07T06:28:35.987Z,3.25
2022-09-07T06:31:03.396Z,3.78
2022-09-07T06:33:30.042Z,3.53
2022-09-07T06:35:57.784Z,3.13
2022-09-07T06:38:26.782Z,3.97
2022-09-07T06:43:45.537Z,3.65
2022-09-07T06:48:59.508Z,4.07
2022-09-07T06:51:29.759Z,4.13
2022-09-07T06:56:43.955Z,4.43
2022-09-07T06:59:10.871Z,4.00
2022-09-07T07:01:37.464Z,4.10
2022-09-07T07:04:04.107Z,4.38
2022-09-07T07:06:37.578Z,4.05
2022-09-07T07:09:05.108Z,3.85
2022-09-07T07:11:31.750Z,4.85
2022-09-07T07:13:58.469Z,3.50
2022-09-07T07:16:25.073Z,5.10
2022-09-07T07:18:55.005Z,3.58
2022-09-07T07:21:21.750Z,3.70
2022-09-07T07:23:52.292Z,3.53
2022-09-07T07:26:20.498Z,3.67
2022-09-07T07:29:04.140Z,3.55
2022-09-07T07:31:33.303Z,3.45
2022-09-07T07:33:59.937Z,3.42
2022-09-07T07:36:27.036Z,3.70
2022-09-07T07:44:13.436Z,3.83
2022-09-07T07:46:40.488Z,3.70
2022-09-07T07:49:07.090Z,4.68
2022-09-07T07:52:49.859Z,4.90
2022-09-07T07:54:21.415Z,3.38
2022-09-07T07:56:49.683Z,3.85
2022-09-07T08:01:00.905Z,4.10
2022-09-07T08:03:10.529Z,3.40
2022-09-07T08:05:44.274Z,3.95
2022-09-07T08:08:14.279Z,4.65
2022-09-07T08:10:43.023Z,4.20
2022-09-07T08:13:11.275Z,3.83
2022-09-07T08:15:40.052Z,3.67
2022-09-07T08:18:06.793Z,4.28
2022-09-07T08:20:33.496Z,4.03
2022-09-07T08:23:00.254Z,3.95
2022-09-07T08:25:28.888Z,4.25
2022-09-07T08:27:57.009Z,3.80
2022-09-07T08:30:23.990Z,4.90
2022-09-07T08:32:55.645Z,4.03
2022-09-07T08:35:22.493Z,4.55
2022-09-07T08:37:53.785Z,5.60
2022-09-07T08:40:21.070Z,4.68
2022-09-07T08:42:57.124Z,4.47
2022-09-07T08:45:30.230Z,4.50
2022-09-07T08:47:57.507Z,4.13
2022-09-07T08:50:37.606Z,4.93
2022-09-07T08:53:18.178Z,4.70
2022-09-07T08:56:04.702Z,4.72
2022-09-07T08:58:48.616Z,4.28
2022-09-07T09:01:37.584Z,4.47
2022-09-07T09:06:11.038Z,4.45
2022-09-07T09:07:09.747Z,3.97
2022-09-07T09:09:41.352Z,4.28
2022-09-07T09:12:17.222Z,4.10
2022-09-07T09:14:57.896Z,4.75
2022-09-07T09:17:39.698Z,4.53
2022-09-07T09:20:23.922Z,4.20
2022-09-07T09:23:11.335Z,4.30
2022-09-07T09:25:39.291Z,3.63
2022-09-07T09:28:05.933Z,5.18
2022-09-07T09:30:33.776Z,4.90
2022-09-07T09:33:15.687Z,6.05
2022-09-07T09:35:43.896Z,5.00
2022-09-07T09:38:32.243Z,4.28
2022-09-07T09:41:15.027Z,6.53
2022-09-07T09:43:45.546Z,5.25
2022-09-07T09:46:20.719Z,3.47
2022-09-07T09:48:52.759Z,4.30
2022-09-07T09:54:27.148Z,4.68
2022-09-07T09:56:54.344Z,5.90
2022-09-07T10:05:27.063Z,5.07
2022-09-07T10:07:54.030Z,4.78
2022-09-07T10:10:20.986Z,4.35
2022-09-07T10:12:47.530Z,3.38
2022-09-07T10:15:33.680Z,4.78
2022-09-07T10:18:06.276Z,4.78
2022-09-07T10:20:36.805Z,4.78
2022-09-07T10:23:04.031Z,5.15
2022-09-07T10:25:31.079Z,4.78
2022-09-07T10:28:12.849Z,4.53
2022-09-07T10:30:52.029Z,4.18
2022-09-07T10:33:37.690Z,4.95
2022-09-07T10:36:13.390Z,4.00
2022-09-07T10:38:42.800Z,3.90
2022-09-07T10:41:09.957Z,4.65
2022-09-07T10:43:36.501Z,5.00
2022-09-07T10:46:15.305Z,5.03
2022-09-07T10:49:10.298Z,4.85
2022-09-07T10:51:51.990Z,4.75
2022-09-07T10:54:30.283Z,4.60
2022-09-07T10:57:15.594Z,4.63
2022-09-07T11:02:31.627Z,4.45
2022-09-07T11:05:09.017Z,4.43
2022-09-07T11:07:41.224Z,4.40
2022-09-07T11:10:30.145Z,4.25
2022-09-07T11:12:58.964Z,4.57
2022-09-07T11:15:27.494Z,4.30
2022-09-07T11:17:56.214Z,4.05
2022-09-07T11:20:22.794Z,3.95
2022-09-07T11:22:52.134Z,4.30
2022-09-07T11:25:32.075Z,3.63
2022-09-07T11:27:58.604Z,4.47
2022-09-07T11:30:29.551Z,4.40
2022-09-07T11:33:12.875Z,4.35
2022-09-07T11:35:39.304Z,4.47
2022-09-07T11:38:14.380Z,4.25
2022-09-07T11:40:51.147Z,4.30
2022-09-07T11:43:21.040Z,4.10
2022-09-07T11:46:10.958Z,4.05
2022-09-07T11:48:42.994Z,4.30
2022-09-07T11:51:14.125Z,4.65
2022-09-07T11:53:44.483Z,4.22
2022-09-07T11:56:14.017Z,3.97
2022-09-07T11:58:53.157Z,4.47
2022-09-07T12:01:23.056Z,3.90
2022-09-07T12:04:14.602Z,4.28
2022-09-07T12:06:53.437Z,4.03
2022-09-07T12:09:22.678Z,4.35
2022-09-07T12:11:58.197Z,4.00
2022-09-07T12:14:33.736Z,4.05
2022-09-07T12:17:06.116Z,4.07
2022-09-07T12:19:34.057Z,4.38
2022-09-07T12:22:01.416Z,4.38
2022-09-07T12:24:44.328Z,4.28
2022-09-07T12:27:32.492Z,4.28
2022-09-07T12:30:01.415Z,4.30
2022-09-07T12:32:55.263Z,4.07
2022-09-07T12:35:28.726Z,4.22
2022-09-07T12:38:19.327Z,4.40
2022-09-07T12:40:57.786Z,4.32
2022-09-07T12:43:42.687Z,4.10
2022-09-07T12:46:17.808Z,4.10
2022-09-07T12:48:50.597Z,4.50
2022-09-07T12:51:59.030Z,4.28
2022-09-07T12:54:03.616Z,3.03
2022-09-07T12:57:29.014Z,4.13
2022-09-07T12:59:51.309Z,4.22
2022-09-07T13:02:23.953Z,4.78
2022-09-07T13:05:02.000Z,4.55
2022-09-07T13:07:46.656Z,0.08
2022-09-07T13:10:31.966Z,0.10
2022-09-07T13:13:03.496Z,0.03
2022-09-07T13:15:42.496Z,0.10
2022-09-07T13:18:12.768Z,0.10
2022-09-07T13:20:40.747Z,0.10
2022-09-07T13:23:17.766Z,0.10
2022-09-07T13:25:45.836Z,0.00
2022-09-07T13:28:23.561Z,0.10
2022-09-07T13:31:09.090Z,0.10
2022-09-07T13:33:35.696Z,0.10
2022-09-07T13:36:05.416Z,0.10
2022-09-07T13:38:33.816Z,0.08
2022-09-07T13:41:26.457Z,0.10
2022-09-07T13:43:56.807Z,0.10
2022-09-07T13:46:44.962Z,0.00
2022-09-07T13:49:20.196Z,0.10
2022-09-07T13:51:57.366Z,0.00
2022-09-07T13:54:29.627Z,0.10
2022-09-07T13:56:58.808Z,0.10
2022-09-07T13:59:28.956Z,0.10
2022-09-07T14:01:56.077Z,0.10
2022-09-07T14:04:34.956Z,0.10
2022-09-07T14:07:06.918Z,0.10
2022-09-07T14:09:34.176Z,0.10
2022-09-07T14:12:00.934Z,0.10
2022-09-07T14:14:32.924Z,0.10
2022-09-07T14:16:59.428Z,0.10
2022-09-07T14:19:29.916Z,0.10
2022-09-07T14:21:57.458Z,0.10
2022-09-07T14:24:28.296Z,0.10
2022-09-07T14:26:55.118Z,0.10
2022-09-07T14:29:23.286Z,0.10
2022-09-07T14:31:50.776Z,0.08
2022-09-07T14:34:19.536Z,0.10
2022-09-07T14:36:47.001Z,0.00
2022-09-07T14:39:15.225Z,0.10
2022-09-07T14:41:43.199Z,0.10
2022-09-07T14:44:28.794Z,0.10
2022-09-07T14:46:57.275Z,0.00
2022-09-07T14:49:24.926Z,0.00
2022-09-07T14:51:52.374Z,0.10
2022-09-07T14:54:20.676Z,0.08
2022-09-07T14:57:08.563Z,0.10
2022-09-07T14:59:42.598Z,0.10
2022-09-07T15:02:18.781Z,0.10
2022-09-07T15:04:46.325Z,0.10
2022-09-07T15:07:48.740Z,0.08
2022-09-07T15:10:21.064Z,0.10
2022-09-07T15:12:57.993Z,0.10
2022-09-07T15:15:29.090Z,0.10
2022-09-07T15:18:01.883Z,0.10
2022-09-07T15:20:34.956Z,0.10
2022-09-07T15:23:02.958Z,0.10
2022-09-07T15:25:31.094Z,0.10
2022-09-07T15:27:58.106Z,0.10
2022-09-07T15:30:26.181Z,0.10
2022-09-07T15:32:54.372Z,0.10
2022-09-07T15:35:20.927Z,0.10
2022-09-07T15:38:04.780Z,0.10
2022-09-07T15:40:38.375Z,0.05
2022-09-07T15:43:16.469Z,0.10
2022-09-07T15:45:47.153Z,0.00
2022-09-07T15:48:14.686Z,0.10
2022-09-07T15:50:42.020Z,0.10
2022-09-07T15:54:06.640Z,0.10
2022-09-07T15:55:55.176Z,0.10
2022-09-07T15:58:21.746Z,0.10
2022-09-07T16:00:48.895Z,0.10
2022-09-07T16:03:16.562Z,0.10
2022-09-07T16:05:44.286Z,0.00
2022-09-07T16:08:26.649Z,0.10
2022-09-07T16:10:55.348Z,0.10
2022-09-07T16:13:24.109Z,0.10
2022-09-07T16:15:51.160Z,0.00
2022-09-07T16:18:18.264Z,0.00
2022-09-07T16:20:45.164Z,0.10
2022-09-07T16:23:14.591Z,0.10
2022-09-07T16:25:43.434Z,0.10
2022-09-07T16:28:10.455Z,0.10
2022-09-07T16:30:40.721Z,0.10
2022-09-07T16:33:07.954Z,0.10
2022-09-07T16:35:34.626Z,0.10
2022-09-07T16:40:50.081Z,0.10
2022-09-07T16:43:17.015Z,0.10
2022-09-07T16:48:31.033Z,0.10
2022-09-07T16:51:02.063Z,0.10
2022-09-07T16:53:29.961Z,0.10
2022-09-07T16:56:09.260Z,0.10
2022-09-07T16:58:37.916Z,0.10
2022-09-07T17:01:05.668Z,0.10
2022-09-07T17:03:32.579Z,0.15
2022-09-07T17:06:02.873Z,0.10
2022-09-07T17:08:29.760Z,0.10
2022-09-07T17:11:06.638Z,0.10
2022-09-07T17:13:33.749Z,0.10
2022-09-07T17:16:07.914Z,0.10
2022-09-07T17:21:21.770Z,0.10
2022-09-07T17:23:54.795Z,0.10
2022-09-07T17:26:23.600Z,0.10
2022-09-07T17:28:53.209Z,0.10
2022-09-07T17:34:08.774Z,0.10
2022-09-07T17:36:35.716Z,0.10
2022-09-07T17:39:19.117Z,0.10
2022-09-07T17:41:47.210Z,0.10
2022-09-07T17:44:13.711Z,0.10
2022-09-07T17:46:40.219Z,0.10
2022-09-07T17:49:12.299Z,0.10
2022-09-07T17:51:39.200Z,0.10
2022-09-07T17:54:10.906Z,0.10
2022-09-07T17:56:38.000Z,0.10
2022-09-07T18:01:54.370Z,0.10
2022-09-07T18:04:21.039Z,0.10
2022-09-07T18:06:47.542Z,0.10
2022-09-07T18:09:14.168Z,0.10
2022-09-07T18:11:49.814Z,0.10
2022-09-07T18:14:17.738Z,0.03
2022-09-07T18:16:45.367Z,0.10
2022-09-07T18:19:12.448Z,0.10
2022-09-07T18:21:42.206Z,0.10
2022-09-07T18:24:19.012Z,0.10
2022-09-07T18:26:50.203Z,0.10
2022-09-07T18:29:28.113Z,0.10
2022-09-07T18:31:56.640Z,0.10
2022-09-07T18:34:23.328Z,0.10
2022-09-07T18:36:49.999Z,0.10
2022-09-07T18:39:17.660Z,0.10
2022-09-07T18:41:44.124Z,0.10
2022-09-07T18:46:57.419Z,0.10
2022-09-07T18:49:25.052Z,0.00
2022-09-07T18:54:39.547Z,0.10
2022-09-07T18:57:06.960Z,0.00
2022-09-07T18:59:34.352Z,0.10
2022-09-07T19:02:04.954Z,0.10
2022-09-07T19:07:20.818Z,0.10
2022-09-07T19:09:48.370Z,0.08
2022-09-07T19:12:16.009Z,0.00
2022-09-07T19:14:42.729Z,0.10
2022-09-07T19:17:11.045Z,0.08
2022-09-07T19:19:38.428Z,0.10
2022-09-07T19:22:05.051Z,0.10
2022-09-07T19:24:31.909Z,0.10
2022-09-07T19:27:00.706Z,0.10
2022-09-07T19:29:27.852Z,0.10
2022-09-07T19:32:07.604Z,0.10
2022-09-07T19:34:35.376Z,0.10
2022-09-07T19:37:02.310Z,0.00
2022-09-07T19:39:28.938Z,0.10
2022-09-07T19:41:55.849Z,0.10
2022-09-07T19:44:22.299Z,0.00
2022-09-07T19:46:49.112Z,0.10
2022-09-07T19:49:15.780Z,0.10
2022-09-07T19:51:42.819Z,0.10
2022-09-07T19:54:09.859Z,0.10
2022-09-07T19:56:37.109Z,0.20
2022-09-07T19:59:03.608Z,0.10
2022-09-07T20:01:30.070Z,0.10
2022-09-07T20:04:00.842Z,0.10
2022-09-07T20:06:27.858Z,0.10
2022-09-07T20:08:54.879Z,0.10
2022-09-07T20:11:21.539Z,0.10
2022-09-07T20:13:47.959Z,0.10
2022-09-07T20:16:16.613Z,0.10
2022-09-07T20:18:43.420Z,0.10
2022-09-07T20:21:11.610Z,0.10
2022-09-07T20:23:42.059Z,0.10
2022-09-07T20:26:09.858Z,0.20
2022-09-07T20:28:37.000Z,0.10
2022-09-07T20:31:08.330Z,0.10
2022-09-07T20:33:35.671Z,0.10
2022-09-07T20:36:06.570Z,0.10
2022-09-07T20:38:38.419Z,0.20
2022-09-07T20:41:04.939Z,0.10
2022-09-07T20:43:31.446Z,0.10
2022-09-07T20:45:58.994Z,0.10
2022-09-07T20:48:26.329Z,0.13
2022-09-07T20:50:56.859Z,0.10
2022-09-07T20:53:23.621Z,0.10
2022-09-07T20:55:58.001Z,0.10
2022-09-07T20:58:24.641Z,0.10
2022-09-07T21:00:51.646Z,0.10
2022-09-07T21:03:18.280Z,0.10
2022-09-07T21:05:44.820Z,0.10
2022-09-07T21:08:11.360Z,0.10
2022-09-07T21:10:41.965Z,0.10
2022-09-07T21:13:08.610Z,0.10
2022-09-07T21:15:39.221Z,0.10
2022-09-07T21:18:06.423Z,0.10
2022-09-07T21:20:32.940Z,0.10
2022-09-07T21:22:59.738Z,0.10
2022-09-07T21:25:26.199Z,0.10
2022-09-07T21:27:53.139Z,0.10
2022-09-07T21:30:19.850Z,0.10
2022-09-07T21:32:49.667Z,0.10
2022-09-07T21:35:16.671Z,0.10
2022-09-07T21:37:43.817Z,0.10
2022-09-07T21:40:10.941Z,0.10
2022-09-07T21:42:38.545Z,0.10
2022-09-07T21:45:07.979Z,0.20
2022-09-07T21:47:35.108Z,0.10
2022-09-07T21:50:01.638Z,0.05
2022-09-07T21:52:28.066Z,0.13
2022-09-07T21:54:54.519Z,0.10
2022-09-07T21:57:22.270Z,0.10
2022-09-07T21:59:48.851Z,0.10
2022-09-07T22:02:15.434Z,0.10
2022-09-07T22:04:42.070Z,0.10
2022-09-07T22:07:08.518Z,0.10
2022-09-07T22:09:34.989Z,0.10
2022-09-07T22:12:01.579Z,0.10
2022-09-07T22:14:29.143Z,0.10
2022-09-07T22:16:55.631Z,0.10
2022-09-07T22:19:22.180Z,0.10
2022-09-07T22:21:48.700Z,0.10
2022-09-07T22:24:15.529Z,0.10
2022-09-07T22:26:42.099Z,0.10
2022-09-07T22:29:11.127Z,0.10
2022-09-07T22:31:38.536Z,0.13
2022-09-07T22:34:08.259Z,0.00
2022-09-07T22:36:42.520Z,0.20
2022-09-07T22:39:11.700Z,0.10
2022-09-07T22:41:38.759Z,0.10
2022-09-07T22:44:05.735Z,0.10
2022-09-07T22:46:35.441Z,0.10
2022-09-07T22:49:01.991Z,0.10
2022-09-07T22:51:28.511Z,0.10
2022-09-07T22:53:55.233Z,0.15
2022-09-07T22:56:22.699Z,0.10
2022-09-07T22:58:50.335Z,0.10
2022-09-07T23:01:17.321Z,0.10
2022-09-07T23:03:44.192Z,0.10
2022-09-07T23:06:22.937Z,0.10
2022-09-07T23:08:55.040Z,0.10
2022-09-07T23:11:22.699Z,0.10
2022-09-07T23:13:53.149Z,0.10
2022-09-07T23:16:20.032Z,0.00
2022-09-07T23:18:46.850Z,0.10
2022-09-07T23:21:21.089Z,0.10
2022-09-07T23:23:51.660Z,0.10
2022-09-07T23:26:18.748Z,0.10
2022-09-07T23:28:45.509Z,0.10
2022-09-07T23:31:12.114Z,0.05
2022-09-07T23:33:38.699Z,0.00
2022-09-07T23:36:06.853Z,0.10
2022-09-07T23:38:33.849Z,0.10
2022-09-07T23:41:00.520Z,0.10
2022-09-07T23:43:28.162Z,0.10
2022-09-07T23:46:00.625Z,0.10
2022-09-07T23:48:27.354Z,0.10
2022-09-07T23:50:54.206Z,0.10
2022-09-07T23:53:22.089Z,0.10
2022-09-07T23:55:50.339Z,0.10
2022-09-07T23:58:21.368Z,0.10
